VOZ9209 YPPH-YBGD
Flight info
| Callsign | VOZ9209 |
|---|---|
| Flight time | 1h 36m |
| Altitude | 37000 |
| Route | AVNEX Y15 IDRIM DCT KALUV DCT ISGOX |
| Aircraft | A320/M-SDE3FGHIRWY/LB1 |
Departure
| Time | 2026-05-07 07:51 |
|---|---|
| Airport | Perth International Airport (YPPH) |
Arrival
| Time | 2026-05-07 09:28 |
|---|---|
| Airport | Boolgeeda (YBGD) |
| Time | Latitude | Longitude | Altitude | Speed | Heading |
|---|---|---|---|---|---|
| 2026-05-07 07:34 | -31.94419 | 115.96884 | 63 ft | 0 kts | 194° |
| 2026-05-07 07:41 | -31.94398 | 115.96891 | 61 ft | 4 kts | 205° |
| 2026-05-07 07:41 | -31.94376 | 115.96908 | 60 ft | 4 kts | 232° |
| 2026-05-07 07:42 | -31.94367 | 115.96933 | 62 ft | 2 kts | 282° |
| 2026-05-07 07:42 | -31.94368 | 115.96936 | 62 ft | 0 kts | 284° |
| 2026-05-07 07:45 | -31.94367 | 115.96930 | 61 ft | 3 kts | 284° |
| 2026-05-07 07:45 | -31.94355 | 115.96874 | 58 ft | 10 kts | 284° |
| 2026-05-07 07:45 | -31.94339 | 115.96787 | 68 ft | 11 kts | 264° |
| 2026-05-07 07:45 | -31.94383 | 115.96753 | 65 ft | 2 kts | 193° |
| 2026-05-07 07:46 | -31.94404 | 115.96748 | 61 ft | 4 kts | 193° |
| 2026-05-07 07:46 | -31.94441 | 115.96737 | 68 ft | 7 kts | 193° |
| 2026-05-07 07:46 | -31.94494 | 115.96722 | 64 ft | 9 kts | 194° |
| 2026-05-07 07:46 | -31.94563 | 115.96701 | 64 ft | 11 kts | 194° |
| 2026-05-07 07:47 | -31.94648 | 115.96676 | 63 ft | 14 kts | 194° |
| 2026-05-07 07:47 | -31.94749 | 115.96648 | 66 ft | 16 kts | 194° |
| 2026-05-07 07:47 | -31.94866 | 115.96614 | 63 ft | 18 kts | 192° |
| 2026-05-07 07:47 | -31.94998 | 115.96574 | 63 ft | 21 kts | 194° |
| 2026-05-07 07:48 | -31.95147 | 115.96531 | 65 ft | 23 kts | 193° |
| 2026-05-07 07:48 | -31.95299 | 115.96487 | 65 ft | 18 kts | 194° |
| 2026-05-07 07:48 | -31.95426 | 115.96450 | 59 ft | 20 kts | 193° |
| 2026-05-07 07:48 | -31.95570 | 115.96408 | 62 ft | 23 kts | 193° |
| 2026-05-07 07:49 | -31.95716 | 115.96367 | 64 ft | 22 kts | 193° |
| 2026-05-07 07:49 | -31.95869 | 115.96320 | 65 ft | 20 kts | 195° |
| 2026-05-07 07:49 | -31.95911 | 115.96206 | 61 ft | 17 kts | 288° |
| 2026-05-07 07:49 | -31.95888 | 115.96072 | 63 ft | 17 kts | 283° |
| 2026-05-07 07:50 | -31.95834 | 115.95974 | 60 ft | 10 kts | 347° |
| 2026-05-07 07:50 | -31.95789 | 115.95993 | 64 ft | 0 kts | 12° |
| 2026-05-07 07:50 | -31.95777 | 115.95996 | 65 ft | 3 kts | 12° |
| 2026-05-07 07:50 | -31.95745 | 115.96005 | 65 ft | 7 kts | 13° |
| 2026-05-07 07:51 | -31.95524 | 115.96071 | 66 ft | 68 kts | 14° |
| 2026-05-07 07:51 | -31.94848 | 115.96267 | 68 ft | 128 kts | 14° |
| 2026-05-07 07:51 | -31.93849 | 115.96577 | 186 ft | 162 kts | 16° |
| 2026-05-07 07:51 | -31.92732 | 115.96878 | 791 ft | 166 kts | 18° |
| 2026-05-07 07:52 | -31.91612 | 115.97201 | 1499 ft | 165 kts | 20° |
| 2026-05-07 07:52 | -31.90483 | 115.97532 | 2081 ft | 173 kts | 20° |
| 2026-05-07 07:52 | -31.89242 | 115.97902 | 2404 ft | 195 kts | 20° |
| 2026-05-07 07:52 | -31.87816 | 115.98210 | 2862 ft | 218 kts | 360° |
| 2026-05-07 07:53 | -31.86390 | 115.97514 | 3588 ft | 237 kts | 321° |
| 2026-05-07 07:53 | -31.85488 | 115.95798 | 4004 ft | 268 kts | 288° |
| 2026-05-07 07:53 | -31.85146 | 115.93569 | 4702 ft | 282 kts | 276° |
| 2026-05-07 07:53 | -31.85030 | 115.91247 | 5633 ft | 287 kts | 273° |
| 2026-05-07 07:54 | -31.84944 | 115.88893 | 6574 ft | 289 kts | 274° |
| 2026-05-07 07:54 | -31.84812 | 115.86525 | 7479 ft | 291 kts | 276° |
| 2026-05-07 07:54 | -31.84617 | 115.84145 | 8333 ft | 294 kts | 278° |
| 2026-05-07 07:54 | -31.84365 | 115.81741 | 9186 ft | 298 kts | 279° |
| 2026-05-07 07:55 | -31.84074 | 115.79306 | 10026 ft | 302 kts | 280° |
| 2026-05-07 07:55 | -31.83757 | 115.76808 | 10493 ft | 320 kts | 280° |
| 2026-05-07 07:55 | -31.83437 | 115.74124 | 10711 ft | 344 kts | 275° |
| 2026-05-07 07:55 | -31.83551 | 115.71234 | 11069 ft | 361 kts | 260° |
| 2026-05-07 07:56 | -31.84219 | 115.68407 | 11703 ft | 367 kts | 252° |
| 2026-05-07 07:56 | -31.84964 | 115.65526 | 12403 ft | 370 kts | 258° |
| 2026-05-07 07:56 | -31.85114 | 115.62504 | 13075 ft | 372 kts | 278° |
| 2026-05-07 07:56 | -31.84423 | 115.59578 | 13744 ft | 373 kts | 297° |
| 2026-05-07 07:57 | -31.82960 | 115.57079 | 14394 ft | 372 kts | 316° |
| 2026-05-07 07:57 | -31.80892 | 115.55280 | 15000 ft | 371 kts | 336° |
| 2026-05-07 07:57 | -31.78448 | 115.54372 | 15574 ft | 369 kts | 355° |
| 2026-05-07 07:57 | -31.75884 | 115.54375 | 16129 ft | 370 kts | 7° |
| 2026-05-07 07:58 | -31.73303 | 115.54630 | 16716 ft | 374 kts | 7° |
| 2026-05-07 07:58 | -31.70698 | 115.54891 | 17299 ft | 378 kts | 7° |
| 2026-05-07 07:58 | -31.68070 | 115.55151 | 17904 ft | 381 kts | 7° |
| 2026-05-07 07:58 | -31.65411 | 115.55409 | 18514 ft | 385 kts | 7° |
| 2026-05-07 07:59 | -31.62728 | 115.55666 | 19076 ft | 389 kts | 7° |
| 2026-05-07 07:59 | -31.60022 | 115.55919 | 19644 ft | 392 kts | 7° |
| 2026-05-07 07:59 | -31.57292 | 115.56172 | 20229 ft | 395 kts | 7° |
| 2026-05-07 07:59 | -31.54540 | 115.56426 | 20813 ft | 398 kts | 7° |
| 2026-05-07 08:00 | -31.51767 | 115.56682 | 21375 ft | 401 kts | 7° |
| 2026-05-07 08:00 | -31.48974 | 115.56944 | 21908 ft | 404 kts | 7° |
| 2026-05-07 08:00 | -31.46152 | 115.57212 | 22427 ft | 407 kts | 7° |
| 2026-05-07 08:00 | -31.43354 | 115.57478 | 22927 ft | 410 kts | 7° |
| 2026-05-07 08:01 | -31.40468 | 115.57752 | 23424 ft | 413 kts | 6° |
| 2026-05-07 08:01 | -31.37632 | 115.58023 | 23895 ft | 416 kts | 7° |
| 2026-05-07 08:01 | -31.34739 | 115.58299 | 24299 ft | 419 kts | 6° |
| 2026-05-07 08:01 | -31.31828 | 115.58575 | 24688 ft | 421 kts | 7° |
| 2026-05-07 08:02 | -31.28899 | 115.58881 | 25066 ft | 423 kts | 9° |
| 2026-05-07 08:02 | -31.26017 | 115.59605 | 25431 ft | 424 kts | 18° |
| 2026-05-07 08:02 | -31.23267 | 115.60861 | 25768 ft | 426 kts | 27° |
| 2026-05-07 08:02 | -31.20621 | 115.62444 | 26129 ft | 428 kts | 28° |
| 2026-05-07 08:03 | -31.17962 | 115.64048 | 26480 ft | 430 kts | 29° |
| 2026-05-07 08:03 | -31.15290 | 115.65661 | 26843 ft | 433 kts | 29° |
| 2026-05-07 08:03 | -31.12606 | 115.67277 | 27199 ft | 436 kts | 28° |
| 2026-05-07 08:03 | -31.09905 | 115.68900 | 27561 ft | 438 kts | 29° |
| 2026-05-07 08:04 | -31.07188 | 115.70535 | 27901 ft | 441 kts | 28° |
| 2026-05-07 08:04 | -31.04452 | 115.72180 | 28232 ft | 444 kts | 28° |
| 2026-05-07 08:04 | -31.01699 | 115.73831 | 28559 ft | 447 kts | 29° |
| 2026-05-07 08:04 | -30.98923 | 115.75493 | 28883 ft | 449 kts | 28° |
| 2026-05-07 08:05 | -30.96126 | 115.77165 | 29178 ft | 453 kts | 28° |
| 2026-05-07 08:05 | -30.93310 | 115.78846 | 29446 ft | 457 kts | 27° |
| 2026-05-07 08:05 | -30.90505 | 115.80521 | 29741 ft | 460 kts | 28° |
| 2026-05-07 08:05 | -30.87621 | 115.82243 | 30153 ft | 460 kts | 28° |
| 2026-05-07 08:06 | -30.84770 | 115.83941 | 30571 ft | 460 kts | 28° |
| 2026-05-07 08:06 | -30.81922 | 115.85638 | 30931 ft | 460 kts | 27° |
| 2026-05-07 08:06 | -30.79106 | 115.87320 | 31256 ft | 461 kts | 27° |
| 2026-05-07 08:06 | -30.76248 | 115.89041 | 31577 ft | 463 kts | 27° |
| 2026-05-07 08:07 | -30.73381 | 115.90778 | 31886 ft | 465 kts | 27° |
| 2026-05-07 08:07 | -30.71474 | 115.91939 | 32116 ft | 465 kts | 27° |
| 2026-05-07 08:07 | -30.68609 | 115.93692 | 32483 ft | 466 kts | 28° |
| 2026-05-07 08:07 | -30.65742 | 115.95455 | 32821 ft | 467 kts | 28° |
| 2026-05-07 08:08 | -30.62872 | 115.97227 | 33194 ft | 467 kts | 28° |
| 2026-05-07 08:08 | -30.60001 | 115.99005 | 33596 ft | 467 kts | 27° |
| 2026-05-07 08:08 | -30.57137 | 116.00786 | 34000 ft | 467 kts | 28° |
| 2026-05-07 08:08 | -30.54279 | 116.02570 | 34362 ft | 467 kts | 27° |
| 2026-05-07 08:09 | -30.51415 | 116.04366 | 34681 ft | 468 kts | 28° |
| 2026-05-07 08:09 | -30.48557 | 116.06167 | 35010 ft | 468 kts | 28° |
| 2026-05-07 08:09 | -30.44770 | 116.08568 | 35404 ft | 468 kts | 28° |
| 2026-05-07 08:09 | -30.42836 | 116.09800 | 35600 ft | 469 kts | 28° |
| 2026-05-07 08:10 | -30.40008 | 116.11609 | 35870 ft | 470 kts | 28° |
| 2026-05-07 08:10 | -30.37150 | 116.13453 | 36093 ft | 472 kts | 28° |
| 2026-05-07 08:10 | -30.34245 | 116.15346 | 36334 ft | 473 kts | 28° |
| 2026-05-07 08:10 | -30.31407 | 116.17202 | 36584 ft | 474 kts | 28° |
| 2026-05-07 08:11 | -30.28535 | 116.19089 | 36828 ft | 475 kts | 28° |
| 2026-05-07 08:11 | -30.25651 | 116.20992 | 37081 ft | 476 kts | 28° |
| 2026-05-07 08:11 | -30.22771 | 116.22900 | 37275 ft | 478 kts | 28° |
| 2026-05-07 08:12 | -30.17001 | 116.26733 | 37332 ft | 479 kts | 28° |
| 2026-05-07 08:12 | -30.11227 | 116.30567 | 37318 ft | 479 kts | 28° |
| 2026-05-07 08:13 | -30.05446 | 116.34422 | 37321 ft | 480 kts | 28° |
| 2026-05-07 08:13 | -29.99691 | 116.38282 | 37316 ft | 481 kts | 28° |
| 2026-05-07 08:14 | -29.93905 | 116.42165 | 37316 ft | 481 kts | 28° |
| 2026-05-07 08:14 | -29.88122 | 116.46049 | 37317 ft | 481 kts | 28° |
| 2026-05-07 08:15 | -29.82335 | 116.49936 | 37322 ft | 482 kts | 28° |
| 2026-05-07 08:15 | -29.76547 | 116.53843 | 37301 ft | 482 kts | 28° |
| 2026-05-07 08:16 | -29.70763 | 116.57774 | 37318 ft | 483 kts | 28° |
| 2026-05-07 08:16 | -29.64956 | 116.61711 | 37313 ft | 484 kts | 28° |
| 2026-05-07 08:17 | -29.59160 | 116.65642 | 37317 ft | 484 kts | 28° |
| 2026-05-07 08:17 | -29.56156 | 116.67342 | 37309 ft | 480 kts | 15° |
| 2026-05-07 08:17 | -29.52928 | 116.68176 | 37295 ft | 472 kts | 0° |
| 2026-05-07 08:18 | -29.46457 | 116.68004 | 37271 ft | 469 kts | 352° |
| 2026-05-07 08:18 | -29.39928 | 116.67621 | 37282 ft | 470 kts | 352° |
| 2026-05-07 08:19 | -29.33373 | 116.67228 | 37279 ft | 472 kts | 352° |
| 2026-05-07 08:19 | -29.26806 | 116.66852 | 37289 ft | 473 kts | 352° |
| 2026-05-07 08:20 | -29.20228 | 116.66492 | 37282 ft | 473 kts | 352° |
| 2026-05-07 08:20 | -29.13635 | 116.66132 | 37288 ft | 474 kts | 352° |
| 2026-05-07 08:21 | -29.07085 | 116.65767 | 37293 ft | 474 kts | 352° |
| 2026-05-07 08:21 | -29.00494 | 116.65398 | 37296 ft | 474 kts | 352° |
| 2026-05-07 08:22 | -28.93891 | 116.65034 | 37275 ft | 475 kts | 351° |
| 2026-05-07 08:22 | -28.87278 | 116.64665 | 37282 ft | 475 kts | 351° |
| 2026-05-07 08:23 | -28.80660 | 116.64294 | 37283 ft | 476 kts | 351° |
| 2026-05-07 08:23 | -28.74045 | 116.63928 | 37288 ft | 476 kts | 351° |
| 2026-05-07 08:24 | -28.67420 | 116.63564 | 37276 ft | 477 kts | 351° |
| 2026-05-07 08:24 | -28.60835 | 116.63202 | 37277 ft | 477 kts | 351° |
| 2026-05-07 08:25 | -28.54202 | 116.62839 | 37283 ft | 477 kts | 351° |
| 2026-05-07 08:25 | -28.47559 | 116.62470 | 37277 ft | 477 kts | 351° |
| 2026-05-07 08:26 | -28.37601 | 116.61919 | 37262 ft | 478 kts | 351° |
| 2026-05-07 08:26 | -28.30936 | 116.61557 | 37264 ft | 478 kts | 351° |
| 2026-05-07 08:27 | -28.24283 | 116.61188 | 37265 ft | 479 kts | 351° |
| 2026-05-07 08:27 | -28.17669 | 116.60819 | 37248 ft | 479 kts | 350° |
| 2026-05-07 08:28 | -28.10997 | 116.60451 | 37254 ft | 479 kts | 350° |
| 2026-05-07 08:28 | -28.04323 | 116.60088 | 37259 ft | 480 kts | 350° |
| 2026-05-07 08:29 | -27.97649 | 116.59725 | 37261 ft | 480 kts | 350° |
| 2026-05-07 08:29 | -27.90969 | 116.59359 | 37264 ft | 480 kts | 350° |
| 2026-05-07 08:30 | -27.84295 | 116.58990 | 37261 ft | 480 kts | 350° |
| 2026-05-07 08:30 | -27.77655 | 116.58634 | 37257 ft | 480 kts | 350° |
| 2026-05-07 08:31 | -27.70965 | 116.58280 | 37258 ft | 480 kts | 350° |
| 2026-05-07 08:31 | -27.64314 | 116.57919 | 37234 ft | 481 kts | 349° |
| 2026-05-07 08:32 | -27.57625 | 116.57554 | 37238 ft | 481 kts | 349° |
| 2026-05-07 08:32 | -27.50927 | 116.57193 | 37243 ft | 482 kts | 349° |
| 2026-05-07 08:33 | -27.44226 | 116.56830 | 37236 ft | 482 kts | 349° |
| 2026-05-07 08:33 | -27.37524 | 116.56469 | 37207 ft | 483 kts | 348° |
| 2026-05-07 08:34 | -27.30803 | 116.56105 | 37217 ft | 483 kts | 348° |
| 2026-05-07 08:34 | -27.24068 | 116.55730 | 37221 ft | 484 kts | 348° |
| 2026-05-07 08:35 | -27.17336 | 116.55371 | 37226 ft | 484 kts | 349° |
| 2026-05-07 08:35 | -27.10636 | 116.55025 | 37205 ft | 485 kts | 348° |
| 2026-05-07 08:36 | -27.03890 | 116.54669 | 37211 ft | 485 kts | 348° |
| 2026-05-07 08:36 | -26.97145 | 116.54300 | 37219 ft | 485 kts | 348° |
| 2026-05-07 08:37 | -26.90388 | 116.53930 | 37222 ft | 486 kts | 348° |
| 2026-05-07 08:37 | -26.83637 | 116.53557 | 37202 ft | 486 kts | 347° |
| 2026-05-07 08:38 | -26.76867 | 116.53194 | 37209 ft | 486 kts | 348° |
| 2026-05-07 08:38 | -26.70102 | 116.52839 | 37209 ft | 487 kts | 347° |
| 2026-05-07 08:39 | -26.63379 | 116.52480 | 37212 ft | 487 kts | 347° |
| 2026-05-07 08:39 | -26.56595 | 116.52123 | 37196 ft | 487 kts | 347° |
| 2026-05-07 08:40 | -26.49822 | 116.51767 | 37199 ft | 487 kts | 347° |
| 2026-05-07 08:40 | -26.43049 | 116.51406 | 37203 ft | 487 kts | 347° |
| 2026-05-07 08:41 | -26.36312 | 116.51053 | 37202 ft | 487 kts | 347° |
| 2026-05-07 08:41 | -26.29530 | 116.50688 | 37180 ft | 488 kts | 346° |
| 2026-05-07 08:42 | -26.22737 | 116.50316 | 37184 ft | 488 kts | 347° |
| 2026-05-07 08:42 | -26.15945 | 116.49966 | 37189 ft | 489 kts | 347° |
| 2026-05-07 08:43 | -26.09140 | 116.49622 | 37191 ft | 489 kts | 347° |
| 2026-05-07 08:43 | -26.02375 | 116.49267 | 37165 ft | 489 kts | 346° |
| 2026-05-07 08:44 | -25.95560 | 116.48898 | 37171 ft | 490 kts | 346° |
| 2026-05-07 08:44 | -25.88732 | 116.48535 | 37177 ft | 491 kts | 346° |
| 2026-05-07 08:45 | -25.81902 | 116.48173 | 37178 ft | 491 kts | 346° |
| 2026-05-07 08:45 | -25.75073 | 116.47816 | 37157 ft | 491 kts | 345° |
| 2026-05-07 08:46 | -25.68245 | 116.47456 | 37162 ft | 492 kts | 345° |
| 2026-05-07 08:46 | -25.61436 | 116.47102 | 37170 ft | 492 kts | 345° |
| 2026-05-07 08:47 | -25.54596 | 116.46743 | 37172 ft | 492 kts | 345° |
| 2026-05-07 08:47 | -25.47746 | 116.46385 | 37141 ft | 493 kts | 345° |
| 2026-05-07 08:48 | -25.40890 | 116.46032 | 37155 ft | 493 kts | 345° |
| 2026-05-07 08:48 | -25.34030 | 116.45677 | 37162 ft | 493 kts | 345° |
| 2026-05-07 08:49 | -25.27212 | 116.45319 | 37159 ft | 493 kts | 345° |
| 2026-05-07 08:49 | -25.20350 | 116.44953 | 37160 ft | 493 kts | 345° |
| 2026-05-07 08:50 | -25.13488 | 116.44600 | 37158 ft | 494 kts | 345° |
| 2026-05-07 08:50 | -25.06627 | 116.44252 | 37153 ft | 494 kts | 345° |
| 2026-05-07 08:51 | -24.99755 | 116.43902 | 37154 ft | 493 kts | 345° |
| 2026-05-07 08:51 | -24.92893 | 116.43545 | 37127 ft | 493 kts | 345° |
| 2026-05-07 08:52 | -24.86028 | 116.43186 | 37140 ft | 493 kts | 344° |
| 2026-05-07 08:52 | -24.80334 | 116.42884 | 37141 ft | 493 kts | 344° |
| 2026-05-07 08:53 | -24.72360 | 116.42471 | 37140 ft | 493 kts | 345° |
| 2026-05-07 08:53 | -24.66615 | 116.42179 | 37114 ft | 493 kts | 344° |
| 2026-05-07 08:54 | -24.59748 | 116.41829 | 37120 ft | 493 kts | 344° |
| 2026-05-07 08:54 | -24.52884 | 116.41472 | 37128 ft | 493 kts | 344° |
| 2026-05-07 08:55 | -24.46073 | 116.41120 | 37129 ft | 493 kts | 344° |
| 2026-05-07 08:55 | -24.39213 | 116.40770 | 37095 ft | 493 kts | 344° |
| 2026-05-07 08:56 | -24.32337 | 116.40425 | 37117 ft | 493 kts | 344° |
| 2026-05-07 08:56 | -24.25485 | 116.40070 | 37124 ft | 493 kts | 344° |
| 2026-05-07 08:57 | -24.18638 | 116.39712 | 37126 ft | 492 kts | 344° |
| 2026-05-07 08:57 | -24.11789 | 116.39367 | 37104 ft | 492 kts | 344° |
| 2026-05-07 08:58 | -24.04985 | 116.39024 | 37112 ft | 492 kts | 344° |
| 2026-05-07 08:58 | -23.98135 | 116.38671 | 37114 ft | 492 kts | 344° |
| 2026-05-07 08:59 | -23.91292 | 116.38321 | 37125 ft | 492 kts | 344° |
| 2026-05-07 08:59 | -23.84394 | 116.38307 | 37114 ft | 509 kts | 355° |
| 2026-05-07 09:00 | -23.80877 | 116.39069 | 37093 ft | 524 kts | 6° |
| 2026-05-07 09:00 | -23.77411 | 116.40471 | 37092 ft | 537 kts | 15° |
| 2026-05-07 09:00 | -23.73986 | 116.42185 | 36101 ft | 547 kts | 16° |
| 2026-05-07 09:00 | -23.70502 | 116.43930 | 35115 ft | 553 kts | 16° |
| 2026-05-07 09:01 | -23.66997 | 116.45691 | 34257 ft | 555 kts | 17° |
| 2026-05-07 09:01 | -23.63474 | 116.47462 | 33288 ft | 557 kts | 17° |
| 2026-05-07 09:01 | -23.59959 | 116.49226 | 32352 ft | 555 kts | 17° |
| 2026-05-07 09:01 | -23.56498 | 116.50956 | 31431 ft | 553 kts | 18° |
| 2026-05-07 09:02 | -23.53003 | 116.52699 | 30493 ft | 551 kts | 19° |
| 2026-05-07 09:02 | -23.49520 | 116.54433 | 29452 ft | 548 kts | 19° |
| 2026-05-07 09:02 | -23.46064 | 116.56152 | 28541 ft | 541 kts | 20° |
| 2026-05-07 09:02 | -23.42665 | 116.57845 | 27751 ft | 532 kts | 20° |
| 2026-05-07 09:03 | -23.39344 | 116.59560 | 27067 ft | 524 kts | 22° |
| 2026-05-07 09:03 | -23.36127 | 116.61359 | 26416 ft | 516 kts | 24° |
| 2026-05-07 09:03 | -23.33004 | 116.63217 | 25792 ft | 507 kts | 26° |
| 2026-05-07 09:03 | -23.29957 | 116.65087 | 25194 ft | 498 kts | 26° |
| 2026-05-07 09:04 | -23.26970 | 116.66927 | 24596 ft | 489 kts | 27° |
| 2026-05-07 09:04 | -23.24025 | 116.68716 | 24018 ft | 480 kts | 26° |
| 2026-05-07 09:04 | -23.21119 | 116.70446 | 23418 ft | 472 kts | 26° |
| 2026-05-07 09:04 | -23.18254 | 116.72124 | 22694 ft | 465 kts | 26° |
| 2026-05-07 09:05 | -23.15418 | 116.73767 | 21988 ft | 459 kts | 26° |
| 2026-05-07 09:05 | -23.12619 | 116.75385 | 21304 ft | 452 kts | 26° |
| 2026-05-07 09:05 | -23.09896 | 116.76964 | 20642 ft | 446 kts | 26° |
| 2026-05-07 09:05 | -23.07176 | 116.78545 | 19993 ft | 441 kts | 26° |
| 2026-05-07 09:06 | -23.04484 | 116.80114 | 19364 ft | 436 kts | 27° |
| 2026-05-07 09:06 | -23.01828 | 116.81668 | 18771 ft | 432 kts | 27° |
| 2026-05-07 09:06 | -22.99198 | 116.83207 | 18177 ft | 427 kts | 27° |
| 2026-05-07 09:06 | -22.96592 | 116.84734 | 17543 ft | 424 kts | 27° |
| 2026-05-07 09:07 | -22.94011 | 116.86243 | 16980 ft | 419 kts | 27° |
| 2026-05-07 09:07 | -22.91458 | 116.87731 | 16467 ft | 413 kts | 27° |
| 2026-05-07 09:07 | -22.88940 | 116.89196 | 16067 ft | 404 kts | 27° |
| 2026-05-07 09:07 | -22.86512 | 116.90610 | 15934 ft | 388 kts | 27° |
| 2026-05-07 09:08 | -22.84188 | 116.91962 | 15809 ft | 372 kts | 27° |
| 2026-05-07 09:08 | -22.81950 | 116.93262 | 15686 ft | 358 kts | 27° |
| 2026-05-07 09:08 | -22.79794 | 116.94513 | 15564 ft | 345 kts | 26° |
| 2026-05-07 09:08 | -22.77712 | 116.95723 | 15419 ft | 334 kts | 27° |
| 2026-05-07 09:09 | -22.75683 | 116.96903 | 15127 ft | 329 kts | 27° |
| 2026-05-07 09:09 | -22.73670 | 116.98074 | 14813 ft | 326 kts | 27° |
| 2026-05-07 09:09 | -22.71679 | 116.99232 | 14496 ft | 323 kts | 27° |
| 2026-05-07 09:09 | -22.69714 | 117.00373 | 13865 ft | 330 kts | 27° |
| 2026-05-07 09:10 | -22.67652 | 117.01568 | 12944 ft | 342 kts | 28° |
| 2026-05-07 09:10 | -22.65511 | 117.02808 | 12005 ft | 353 kts | 29° |
| 2026-05-07 09:10 | -22.63260 | 117.03943 | 11080 ft | 362 kts | 21° |
| 2026-05-07 09:10 | -22.60858 | 117.04780 | 10151 ft | 359 kts | 18° |
| 2026-05-07 09:11 | -22.58479 | 117.05476 | 9194 ft | 349 kts | 17° |
| 2026-05-07 09:11 | -22.56323 | 117.06527 | 8111 ft | 336 kts | 39° |
| 2026-05-07 09:11 | -22.54837 | 117.08445 | 6726 ft | 337 kts | 64° |
| 2026-05-07 09:11 | -22.54252 | 117.10888 | 5268 ft | 337 kts | 83° |
| 2026-05-07 09:12 | -22.54229 | 117.13420 | 4087 ft | 332 kts | 92° |
| 2026-05-07 09:12 | -22.54409 | 117.15798 | 3724 ft | 303 kts | 98° |
| 2026-05-07 09:12 | -22.55143 | 117.17805 | 3377 ft | 284 kts | 123° |
| 2026-05-07 09:12 | -22.56599 | 117.19183 | 3107 ft | 270 kts | 151° |
| 2026-05-07 09:13 | -22.58312 | 117.19366 | 3459 ft | 244 kts | 194° |
| 2026-05-07 09:13 | -22.59578 | 117.18315 | 3776 ft | 231 kts | 242° |
| 2026-05-07 09:13 | -22.59747 | 117.16761 | 4137 ft | 195 kts | 292° |
| 2026-05-07 09:13 | -22.58981 | 117.15721 | 3891 ft | 168 kts | 340° |
| 2026-05-07 09:14 | -22.57860 | 117.15565 | 3307 ft | 160 kts | 8° |
| 2026-05-07 09:14 | -22.56849 | 117.15731 | 3119 ft | 137 kts | 37° |
| 2026-05-07 09:14 | -22.56115 | 117.16331 | 3078 ft | 131 kts | 42° |
| 2026-05-07 09:14 | -22.55414 | 117.16957 | 3079 ft | 130 kts | 44° |
| 2026-05-07 09:15 | -22.54537 | 117.17289 | 3079 ft | 143 kts | 7° |
| 2026-05-07 09:15 | -22.53596 | 117.17459 | 3036 ft | 130 kts | 45° |
| 2026-05-07 09:15 | -22.53354 | 117.18293 | 3065 ft | 130 kts | 105° |
| 2026-05-07 09:15 | -22.53792 | 117.19170 | 3077 ft | 132 kts | 114° |
| 2026-05-07 09:16 | -22.54176 | 117.20038 | 2979 ft | 128 kts | 97° |
| 2026-05-07 09:16 | -22.54272 | 117.21001 | 2802 ft | 131 kts | 92° |
| 2026-05-07 09:16 | -22.54356 | 117.21997 | 2634 ft | 132 kts | 91° |
| 2026-05-07 09:16 | -22.54406 | 117.22974 | 2462 ft | 129 kts | 85° |
| 2026-05-07 09:17 | -22.54332 | 117.23962 | 2285 ft | 134 kts | 86° |
| 2026-05-07 09:17 | -22.54205 | 117.24947 | 2193 ft | 136 kts | 84° |
| 2026-05-07 09:17 | -22.54115 | 117.25939 | 1885 ft | 127 kts | 84° |
| 2026-05-07 09:17 | -22.54042 | 117.26777 | 1884 ft | 105 kts | 83° |
| 2026-05-07 09:18 | -22.53964 | 117.27661 | 2332 ft | 124 kts | 84° |
| 2026-05-07 09:18 | -22.53876 | 117.28608 | 2998 ft | 136 kts | 83° |
| 2026-05-07 09:18 | -22.53797 | 117.29721 | 3060 ft | 158 kts | 84° |
| 2026-05-07 09:18 | -22.53731 | 117.30942 | 3060 ft | 167 kts | 91° |
| 2026-05-07 09:19 | -22.54199 | 117.32134 | 2983 ft | 185 kts | 133° |
| 2026-05-07 09:19 | -22.55485 | 117.32694 | 3439 ft | 224 kts | 176° |
| 2026-05-07 09:19 | -22.57082 | 117.32187 | 4242 ft | 255 kts | 215° |
| 2026-05-07 09:19 | -22.58362 | 117.30674 | 4775 ft | 303 kts | 236° |
| 2026-05-07 09:20 | -22.59205 | 117.28390 | 4770 ft | 351 kts | 257° |
| 2026-05-07 09:20 | -22.59722 | 117.25666 | 4753 ft | 376 kts | 259° |
| 2026-05-07 09:20 | -22.60228 | 117.23013 | 4753 ft | 353 kts | 258° |
| 2026-05-07 09:20 | -22.60718 | 117.20488 | 4760 ft | 332 kts | 258° |
| 2026-05-07 09:21 | -22.61170 | 117.18102 | 4775 ft | 315 kts | 260° |
| 2026-05-07 09:21 | -22.61426 | 117.15820 | 4857 ft | 296 kts | 269° |
| 2026-05-07 09:21 | -22.61380 | 117.13654 | 4843 ft | 282 kts | 276° |
| 2026-05-07 09:21 | -22.61191 | 117.11566 | 4627 ft | 278 kts | 278° |
| 2026-05-07 09:22 | -22.60898 | 117.09522 | 4275 ft | 269 kts | 287° |
| 2026-05-07 09:22 | -22.60137 | 117.07780 | 4125 ft | 246 kts | 313° |
| 2026-05-07 09:22 | -22.58875 | 117.06710 | 3884 ft | 220 kts | 346° |
| 2026-05-07 09:22 | -22.57504 | 117.06726 | 3735 ft | 184 kts | 37° |
| 2026-05-07 09:23 | -22.56774 | 117.07708 | 3671 ft | 161 kts | 63° |
| 2026-05-07 09:23 | -22.56337 | 117.08768 | 3555 ft | 150 kts | 72° |
| 2026-05-07 09:23 | -22.56049 | 117.09824 | 3531 ft | 144 kts | 75° |
| 2026-05-07 09:23 | -22.55809 | 117.10874 | 3442 ft | 145 kts | 75° |
| 2026-05-07 09:24 | -22.55565 | 117.11924 | 3292 ft | 145 kts | 77° |
| 2026-05-07 09:24 | -22.55378 | 117.12994 | 3097 ft | 145 kts | 80° |
| 2026-05-07 09:24 | -22.55267 | 117.14064 | 3094 ft | 142 kts | 82° |
| 2026-05-07 09:24 | -22.55150 | 117.15128 | 2997 ft | 143 kts | 82° |
| 2026-05-07 09:25 | -22.55063 | 117.16182 | 2871 ft | 143 kts | 85° |
| 2026-05-07 09:25 | -22.55012 | 117.17259 | 2788 ft | 144 kts | 88° |
| 2026-05-07 09:25 | -22.54917 | 117.18340 | 2800 ft | 143 kts | 78° |
| 2026-05-07 09:25 | -22.54755 | 117.19411 | 2830 ft | 140 kts | 81° |
| 2026-05-07 09:26 | -22.54641 | 117.20450 | 2756 ft | 141 kts | 82° |
| 2026-05-07 09:26 | -22.54544 | 117.21503 | 2714 ft | 139 kts | 83° |
| 2026-05-07 09:26 | -22.54453 | 117.22573 | 2498 ft | 143 kts | 83° |
| 2026-05-07 09:26 | -22.54345 | 117.23650 | 2370 ft | 150 kts | 82° |
| 2026-05-07 09:27 | -22.54193 | 117.24796 | 2217 ft | 148 kts | 85° |
| 2026-05-07 09:27 | -22.54119 | 117.25861 | 1908 ft | 134 kts | 84° |
| 2026-05-07 09:27 | -22.53997 | 117.27319 | 1851 ft | 53 kts | 84° |
| 2026-05-07 09:28 | -22.53980 | 117.27529 | 1854 ft | 6 kts | 86° |
| 2026-05-07 09:28 | -22.53975 | 117.27590 | 1855 ft | 11 kts | 85° |
| 2026-05-07 09:28 | -22.53965 | 117.27684 | 1854 ft | 14 kts | 83° |
| 2026-05-07 09:28 | -22.53954 | 117.27801 | 1853 ft | 17 kts | 85° |
| 2026-05-07 09:29 | -22.53943 | 117.27925 | 1854 ft | 5 kts | 85° |
| 2026-05-07 09:29 | -22.53940 | 117.27972 | 1854 ft | 8 kts | 85° |
| 2026-05-07 09:29 | -22.53966 | 117.28011 | 1854 ft | 9 kts | 171° |
| 2026-05-07 09:29 | -22.54036 | 117.28018 | 1852 ft | 7 kts | 176° |
| 2026-05-07 09:30 | -22.54052 | 117.28019 | 1851 ft | 2 kts | 175° |
| 2026-05-07 09:30 | -22.54070 | 117.28021 | 1853 ft | 0 kts | 175° |
| 2026-05-07 09:30 | -22.54076 | 117.28022 | 1853 ft | 2 kts | 174° |
| 2026-05-07 09:30 | -22.54100 | 117.28024 | 1852 ft | 5 kts | 174° |
| 2026-05-07 09:31 | -22.54131 | 117.28041 | 1854 ft | 6 kts | 122° |
| 2026-05-07 09:31 | -22.54131 | 117.28093 | 1852 ft | 8 kts | 83° |
| 2026-05-07 09:31 | -22.54154 | 117.28149 | 1852 ft | 9 kts | 175° |
| 2026-05-07 09:31 | -22.54178 | 117.28137 | 1852 ft | 0 kts | 206° |
| 2026-05-07 09:32 | -22.54180 | 117.28136 | 1852 ft | 0 kts | 206° |